sensor_id;sensor_type;location;lat;lon;timestamp;P1;durP1;ratioP1;P2;durP2;ratioP2
74644;SDS011;63163;55.630;37.594;2023-03-11T00:00:27;14.4;;;7.0;;
74644;SDS011;63163;55.630;37.594;2023-03-11T00:01:27;15.6;;;7.1;;
74644;SDS011;63163;55.630;37.594;2023-03-11T00:02:28;16.2;;;6.5;;
74644;SDS011;63163;55.630;37.594;2023-03-11T00:03:29;14.8;;;6.8;;
74644;SDS011;63163;55.630;37.594;2023-03-11T00:04:29;15.7;;;5.8;;
74644;SDS011;63163;55.630;37.594;2023-03-11T00:05:30;13.7;;;6.7;;
74644;SDS011;63163;55.630;37.594;2023-03-11T00:06:33;14.8;;;6.8;;
74644;SDS011;63163;55.630;37.594;2023-03-11T00:07:33;12.9;;;5.8;;
74644;SDS011;63163;55.630;37.594;2023-03-11T00:08:36;14.0;;;6.0;;
74644;SDS011;63163;55.630;37.594;2023-03-11T00:09:37;13.8;;;6.6;;
74644;SDS011;63163;55.630;37.594;2023-03-11T00:10:38;13.6;;;6.1;;
74644;SDS011;63163;55.630;37.594;2023-03-11T00:11:39;12.8;;;5.8;;
74644;SDS011;63163;55.630;37.594;2023-03-11T00:12:40;11.6;;;5.6;;
74644;SDS011;63163;55.630;37.594;2023-03-11T00:13:41;10.7;;;5.4;;
74644;SDS011;63163;55.630;37.594;2023-03-11T00:14:41;13.7;;;5.9;;
74644;SDS011;63163;55.630;37.594;2023-03-11T00:15:42;12.5;;;6.2;;
74644;SDS011;63163;55.630;37.594;2023-03-11T00:16:43;12.1;;;5.9;;
74644;SDS011;63163;55.630;37.594;2023-03-11T00:17:44;13.5;;;5.9;;
74644;SDS011;63163;55.630;37.594;2023-03-11T00:18:48;11.7;;;5.8;;
74644;SDS011;63163;55.630;37.594;2023-03-11T00:19:49;15.1;;;5.7;;
74644;SDS011;63163;55.630;37.594;2023-03-11T00:20:50;10.8;;;5.4;;
74644;SDS011;63163;55.630;37.594;2023-03-11T00:21:50;10.4;;;5.3;;
74644;SDS011;63163;55.630;37.594;2023-03-11T00:22:51;11.7;;;5.4;;
74644;SDS011;63163;55.630;37.594;2023-03-11T00:23:52;12.9;;;5.4;;
74644;SDS011;63163;55.630;37.594;2023-03-11T00:24:52;8.9;;;5.2;;
74644;SDS011;63163;55.630;37.594;2023-03-11T00:25:53;12.2;;;5.4;;
74644;SDS011;63163;55.630;37.594;2023-03-11T00:26:53;10.9;;;5.1;;
74644;SDS011;63163;55.630;37.594;2023-03-11T00:27:54;9.1;;;5.0;;
74644;SDS011;63163;55.630;37.594;2023-03-11T00:28:54;14.8;;;5.4;;
74644;SDS011;63163;55.630;37.594;2023-03-11T00:29:55;14.8;;;5.4;;
74644;SDS011;63163;55.630;37.594;2023-03-11T00:30:55;8.3;;;4.7;;
74644;SDS011;63163;55.630;37.594;2023-03-11T00:31:56;9.9;;;4.8;;
74644;SDS011;63163;55.630;37.594;2023-03-11T00:32:57;9.7;;;4.7;;
74644;SDS011;63163;55.630;37.594;2023-03-11T00:33:58;11.1;;;4.5;;
74644;SDS011;63163;55.630;37.594;2023-03-11T00:34:58;10.2;;;4.8;;
74644;SDS011;63163;55.630;37.594;2023-03-11T00:35:59;7.6;;;4.3;;
74644;SDS011;63163;55.630;37.594;2023-03-11T00:36:59;7.6;;;4.6;;
74644;SDS011;63163;55.630;37.594;2023-03-11T00:38:01;10.3;;;4.4;;
74644;SDS011;63163;55.630;37.594;2023-03-11T00:39:03;9.7;;;4.5;;
74644;SDS011;63163;55.630;37.594;2023-03-11T00:40:06;9.5;;;4.3;;
74644;SDS011;63163;55.630;37.594;2023-03-11T00:41:08;9.2;;;4.6;;
74644;SDS011;63163;55.630;37.594;2023-03-11T00:42:08;8.3;;;4.1;;
74644;SDS011;63163;55.630;37.594;2023-03-11T00:43:09;10.8;;;4.3;;
74644;SDS011;63163;55.630;37.594;2023-03-11T00:44:09;9.1;;;4.3;;
74644;SDS011;63163;55.630;37.594;2023-03-11T00:45:11;7.8;;;4.1;;
74644;SDS011;63163;55.630;37.594;2023-03-11T00:46:12;9.4;;;4.7;;
74644;SDS011;63163;55.630;37.594;2023-03-11T00:47:13;10.5;;;4.3;;
74644;SDS011;63163;55.630;37.594;2023-03-11T00:48:13;10.4;;;4.4;;
74644;SDS011;63163;55.630;37.594;2023-03-11T00:49:14;7.7;;;3.7;;
74644;SDS011;63163;55.630;37.594;2023-03-11T00:50:15;8.2;;;4.2;;
74644;SDS011;63163;55.630;37.594;2023-03-11T00:51:17;9.0;;;4.3;;
74644;SDS011;63163;55.630;37.594;2023-03-11T00:52:17;11.3;;;4.5;;
74644;SDS011;63163;55.630;37.594;2023-03-11T00:53:18;7.3;;;4.1;;
74644;SDS011;63163;55.630;37.594;2023-03-11T00:54:18;9.6;;;4.6;;
74644;SDS011;63163;55.630;37.594;2023-03-11T00:55:20;9.0;;;4.5;;
74644;SDS011;63163;55.630;37.594;2023-03-11T00:56:21;9.8;;;4.7;;
74644;SDS011;63163;55.630;37.594;2023-03-11T00:57:21;9.1;;;4.7;;
74644;SDS011;63163;55.630;37.594;2023-03-11T00:58:22;8.9;;;4.9;;
74644;SDS011;63163;55.630;37.594;2023-03-11T00:59:26;11.2;;;4.6;;
74644;SDS011;63163;55.630;37.594;2023-03-11T01:00:27;9.0;;;4.8;;
74644;SDS011;63163;55.630;37.594;2023-03-11T01:01:28;8.7;;;4.5;;
74644;SDS011;63163;55.630;37.594;2023-03-11T01:02:28;9.2;;;4.6;;
74644;SDS011;63163;55.630;37.594;2023-03-11T01:03:29;8.5;;;4.2;;
74644;SDS011;63163;55.630;37.594;2023-03-11T01:04:29;8.9;;;4.0;;
74644;SDS011;63163;55.630;37.594;2023-03-11T01:05:30;8.9;;;4.6;;
74644;SDS011;63163;55.630;37.594;2023-03-11T01:06:31;9.6;;;4.8;;
74644;SDS011;63163;55.630;37.594;2023-03-11T01:07:32;8.9;;;4.7;;
74644;SDS011;63163;55.630;37.594;2023-03-11T01:08:33;10.5;;;5.0;;
74644;SDS011;63163;55.630;37.594;2023-03-11T01:09:33;9.8;;;4.9;;
74644;SDS011;63163;55.630;37.594;2023-03-11T01:10:34;9.0;;;4.4;;
74644;SDS011;63163;55.630;37.594;2023-03-11T01:11:35;8.7;;;4.4;;
74644;SDS011;63163;55.630;37.594;2023-03-11T01:12:35;9.8;;;4.7;;
74644;SDS011;63163;55.630;37.594;2023-03-11T01:13:37;8.4;;;4.6;;
74644;SDS011;63163;55.630;37.594;2023-03-11T01:14:37;14.7;;;5.6;;
74644;SDS011;63163;55.630;37.594;2023-03-11T01:15:38;11.2;;;4.7;;
74644;SDS011;63163;55.630;37.594;2023-03-11T01:16:38;10.1;;;5.1;;
74644;SDS011;63163;55.630;37.594;2023-03-11T01:17:39;10.4;;;5.2;;
74644;SDS011;63163;55.630;37.594;2023-03-11T01:18:39;12.0;;;4.7;;
74644;SDS011;63163;55.630;37.594;2023-03-11T01:19:40;8.6;;;4.4;;
74644;SDS011;63163;55.630;37.594;2023-03-11T01:20:41;10.2;;;4.7;;
74644;SDS011;63163;55.630;37.594;2023-03-11T01:21:41;10.2;;;5.1;;
74644;SDS011;63163;55.630;37.594;2023-03-11T01:22:42;10.9;;;5.1;;
74644;SDS011;63163;55.630;37.594;2023-03-11T01:23:43;10.2;;;4.9;;
74644;SDS011;63163;55.630;37.594;2023-03-11T01:24:43;10.8;;;4.6;;
74644;SDS011;63163;55.630;37.594;2023-03-11T01:25:44;9.3;;;5.0;;
74644;SDS011;63163;55.630;37.594;2023-03-11T01:26:44;12.7;;;5.4;;
74644;SDS011;63163;55.630;37.594;2023-03-11T01:27:45;10.4;;;5.0;;
74644;SDS011;63163;55.630;37.594;2023-03-11T01:28:45;10.0;;;5.1;;
74644;SDS011;63163;55.630;37.594;2023-03-11T01:29:46;10.0;;;5.1;;
74644;SDS011;63163;55.630;37.594;2023-03-11T01:30:46;11.8;;;5.8;;
74644;SDS011;63163;55.630;37.594;2023-03-11T01:31:47;11.0;;;5.3;;
74644;SDS011;63163;55.630;37.594;2023-03-11T01:32:48;11.6;;;5.6;;
74644;SDS011;63163;55.630;37.594;2023-03-11T01:33:48;10.1;;;5.3;;
74644;SDS011;63163;55.630;37.594;2023-03-11T01:34:49;12.7;;;5.2;;
74644;SDS011;63163;55.630;37.594;2023-03-11T01:35:49;11.3;;;6.0;;
74644;SDS011;63163;55.630;37.594;2023-03-11T01:36:50;10.4;;;5.6;;
74644;SDS011;63163;55.630;37.594;2023-03-11T01:37:50;10.5;;;5.5;;
74644;SDS011;63163;55.630;37.594;2023-03-11T01:38:52;13.0;;;5.7;;
74644;SDS011;63163;55.630;37.594;2023-03-11T01:39:52;16.2;;;8.7;;
74644;SDS011;63163;55.630;37.594;2023-03-11T01:40:53;12.2;;;5.9;;
74644;SDS011;63163;55.630;37.594;2023-03-11T01:41:53;10.7;;;6.2;;
74644;SDS011;63163;55.630;37.594;2023-03-11T01:42:55;22.6;;;9.8;;
74644;SDS011;63163;55.630;37.594;2023-03-11T01:43:56;13.2;;;6.5;;
74644;SDS011;63163;55.630;37.594;2023-03-11T01:44:56;17.9;;;9.1;;
74644;SDS011;63163;55.630;37.594;2023-03-11T01:46:13;14.1;;;7.0;;
74644;SDS011;63163;55.630;37.594;2023-03-11T01:47:34;15.2;;;7.7;;
74644;SDS011;63163;55.630;37.594;2023-03-11T01:48:34;12.9;;;6.4;;
74644;SDS011;63163;55.630;37.594;2023-03-11T01:49:37;14.5;;;5.9;;
74644;SDS011;63163;55.630;37.594;2023-03-11T01:50:42;15.9;;;6.3;;
74644;SDS011;63163;55.630;37.594;2023-03-11T01:51:45;9.9;;;5.4;;
74644;SDS011;63163;55.630;37.594;2023-03-11T01:52:47;14.4;;;6.9;;
74644;SDS011;63163;55.630;37.594;2023-03-11T01:53:48;9.6;;;5.2;;
74644;SDS011;63163;55.630;37.594;2023-03-11T01:54:49;9.7;;;5.2;;
74644;SDS011;63163;55.630;37.594;2023-03-11T01:55:49;10.4;;;5.4;;
74644;SDS011;63163;55.630;37.594;2023-03-11T01:56:50;11.4;;;5.8;;
74644;SDS011;63163;55.630;37.594;2023-03-11T01:57:51;11.0;;;5.3;;
74644;SDS011;63163;55.630;37.594;2023-03-11T01:58:53;10.9;;;5.5;;
74644;SDS011;63163;55.630;37.594;2023-03-11T01:59:55;12.5;;;6.0;;
74644;SDS011;63163;55.630;37.594;2023-03-11T02:00:56;11.7;;;5.4;;
74644;SDS011;63163;55.630;37.594;2023-03-11T02:02:01;9.0;;;5.1;;
74644;SDS011;63163;55.630;37.594;2023-03-11T02:03:05;13.5;;;6.3;;
74644;SDS011;63163;55.630;37.594;2023-03-11T02:04:06;12.4;;;5.5;;
74644;SDS011;63163;55.630;37.594;2023-03-11T02:05:07;12.3;;;6.2;;
74644;SDS011;63163;55.630;37.594;2023-03-11T02:06:09;12.7;;;6.2;;
74644;SDS011;63163;55.630;37.594;2023-03-11T02:07:10;12.0;;;5.9;;
74644;SDS011;63163;55.630;37.594;2023-03-11T02:08:11;13.4;;;6.0;;
74644;SDS011;63163;55.630;37.594;2023-03-11T02:09:12;12.6;;;5.8;;
74644;SDS011;63163;55.630;37.594;2023-03-11T02:10:12;12.3;;;6.0;;
74644;SDS011;63163;55.630;37.594;2023-03-11T02:11:14;10.7;;;5.7;;
74644;SDS011;63163;55.630;37.594;2023-03-11T02:12:16;10.6;;;5.5;;
74644;SDS011;63163;55.630;37.594;2023-03-11T02:13:16;11.0;;;6.0;;
74644;SDS011;63163;55.630;37.594;2023-03-11T02:14:17;10.8;;;5.4;;
74644;SDS011;63163;55.630;37.594;2023-03-11T02:15:17;11.1;;;5.2;;
74644;SDS011;63163;55.630;37.594;2023-03-11T02:16:18;10.2;;;5.2;;
74644;SDS011;63163;55.630;37.594;2023-03-11T02:17:19;10.9;;;4.9;;
74644;SDS011;63163;55.630;37.594;2023-03-11T02:18:20;13.6;;;5.6;;
74644;SDS011;63163;55.630;37.594;2023-03-11T02:19:22;8.2;;;4.8;;
74644;SDS011;63163;55.630;37.594;2023-03-11T02:20:30;11.1;;;5.1;;
74644;SDS011;63163;55.630;37.594;2023-03-11T02:21:32;9.7;;;5.0;;
74644;SDS011;63163;55.630;37.594;2023-03-11T02:22:33;8.5;;;5.1;;
74644;SDS011;63163;55.630;37.594;2023-03-11T02:23:35;9.6;;;5.8;;
74644;SDS011;63163;55.630;37.594;2023-03-11T02:24:39;9.1;;;5.4;;
74644;SDS011;63163;55.630;37.594;2023-03-11T02:25:43;8.8;;;5.3;;
74644;SDS011;63163;55.630;37.594;2023-03-11T02:26:49;10.3;;;5.0;;
74644;SDS011;63163;55.630;37.594;2023-03-11T02:27:51;11.4;;;5.2;;
74644;SDS011;63163;55.630;37.594;2023-03-11T02:28:52;10.2;;;5.4;;
74644;SDS011;63163;55.630;37.594;2023-03-11T02:29:53;10.2;;;5.4;;
74644;SDS011;63163;55.630;37.594;2023-03-11T02:30:55;10.9;;;5.1;;
74644;SDS011;63163;55.630;37.594;2023-03-11T02:31:56;12.0;;;5.3;;
74644;SDS011;63163;55.630;37.594;2023-03-11T02:32:57;9.2;;;5.4;;
74644;SDS011;63163;55.630;37.594;2023-03-11T02:33:58;9.5;;;5.0;;
74644;SDS011;63163;55.630;37.594;2023-03-11T02:35:01;12.2;;;5.8;;
74644;SDS011;63163;55.630;37.594;2023-03-11T02:36:01;9.7;;;5.8;;
74644;SDS011;63163;55.630;37.594;2023-03-11T02:37:03;7.9;;;4.7;;
74644;SDS011;63163;55.630;37.594;2023-03-11T02:38:04;10.1;;;4.9;;
74644;SDS011;63163;55.630;37.594;2023-03-11T02:39:05;9.5;;;5.1;;
74644;SDS011;63163;55.630;37.594;2023-03-11T02:41:10;9.8;;;5.2;;
74644;SDS011;63163;55.630;37.594;2023-03-11T02:42:11;8.6;;;5.0;;
74644;SDS011;63163;55.630;37.594;2023-03-11T02:43:13;9.8;;;5.1;;
74644;SDS011;63163;55.630;37.594;2023-03-11T02:44:14;10.2;;;5.1;;
74644;SDS011;63163;55.630;37.594;2023-03-11T02:45:15;10.7;;;5.3;;
74644;SDS011;63163;55.630;37.594;2023-03-11T02:46:16;10.3;;;5.3;;
74644;SDS011;63163;55.630;37.594;2023-03-11T02:47:17;9.2;;;5.4;;
74644;SDS011;63163;55.630;37.594;2023-03-11T02:48:18;10.5;;;5.4;;
74644;SDS011;63163;55.630;37.594;2023-03-11T02:49:19;10.5;;;5.3;;
74644;SDS011;63163;55.630;37.594;2023-03-11T02:50:20;10.6;;;5.2;;
74644;SDS011;63163;55.630;37.594;2023-03-11T02:51:21;11.0;;;5.6;;
74644;SDS011;63163;55.630;37.594;2023-03-11T02:52:21;9.5;;;5.1;;
74644;SDS011;63163;55.630;37.594;2023-03-11T02:53:22;8.4;;;5.1;;
74644;SDS011;63163;55.630;37.594;2023-03-11T02:54:23;10.0;;;5.6;;
74644;SDS011;63163;55.630;37.594;2023-03-11T02:55:24;9.9;;;5.6;;
74644;SDS011;63163;55.630;37.594;2023-03-11T02:56:24;9.2;;;5.7;;
74644;SDS011;63163;55.630;37.594;2023-03-11T02:57:25;8.9;;;5.3;;
74644;SDS011;63163;55.630;37.594;2023-03-11T02:58:26;11.5;;;5.6;;
74644;SDS011;63163;55.630;37.594;2023-03-11T02:59:26;9.5;;;5.4;;
74644;SDS011;63163;55.630;37.594;2023-03-11T03:00:27;10.9;;;5.6;;
74644;SDS011;63163;55.630;37.594;2023-03-11T03:01:28;9.0;;;5.0;;
74644;SDS011;63163;55.630;37.594;2023-03-11T03:02:28;10.8;;;5.4;;
74644;SDS011;63163;55.630;37.594;2023-03-11T03:03:29;8.8;;;5.6;;
74644;SDS011;63163;55.630;37.594;2023-03-11T03:04:29;10.4;;;6.0;;
74644;SDS011;63163;55.630;37.594;2023-03-11T03:05:30;9.7;;;5.6;;
74644;SDS011;63163;55.630;37.594;2023-03-11T03:06:30;10.8;;;5.8;;
74644;SDS011;63163;55.630;37.594;2023-03-11T03:07:31;10.1;;;5.5;;
74644;SDS011;63163;55.630;37.594;2023-03-11T03:08:31;11.6;;;6.1;;
74644;SDS011;63163;55.630;37.594;2023-03-11T03:09:32;11.8;;;6.1;;
74644;SDS011;63163;55.630;37.594;2023-03-11T03:10:33;9.7;;;5.5;;
74644;SDS011;63163;55.630;37.594;2023-03-11T03:11:34;11.0;;;6.1;;
74644;SDS011;63163;55.630;37.594;2023-03-11T03:12:34;12.0;;;6.6;;
74644;SDS011;63163;55.630;37.594;2023-03-11T03:13:35;10.1;;;6.0;;
74644;SDS011;63163;55.630;37.594;2023-03-11T03:14:35;10.5;;;5.9;;
74644;SDS011;63163;55.630;37.594;2023-03-11T03:15:36;10.5;;;6.1;;
74644;SDS011;63163;55.630;37.594;2023-03-11T03:16:36;11.7;;;6.4;;
74644;SDS011;63163;55.630;37.594;2023-03-11T03:17:37;12.8;;;6.9;;
74644;SDS011;63163;55.630;37.594;2023-03-11T03:18:38;11.5;;;6.5;;
74644;SDS011;63163;55.630;37.594;2023-03-11T03:19:38;12.6;;;6.7;;
74644;SDS011;63163;55.630;37.594;2023-03-11T03:20:39;14.9;;;6.8;;
74644;SDS011;63163;55.630;37.594;2023-03-11T03:21:39;12.2;;;6.6;;
74644;SDS011;63163;55.630;37.594;2023-03-11T03:22:40;12.5;;;6.7;;
74644;SDS011;63163;55.630;37.594;2023-03-11T03:23:41;10.7;;;6.2;;
74644;SDS011;63163;55.630;37.594;2023-03-11T03:24:42;11.8;;;6.4;;
74644;SDS011;63163;55.630;37.594;2023-03-11T03:25:42;11.7;;;6.6;;
74644;SDS011;63163;55.630;37.594;2023-03-11T03:26:43;14.0;;;6.4;;
74644;SDS011;63163;55.630;37.594;2023-03-11T03:27:43;13.7;;;6.9;;
74644;SDS011;63163;55.630;37.594;2023-03-11T03:28:44;12.8;;;6.6;;
74644;SDS011;63163;55.630;37.594;2023-03-11T03:29:45;13.0;;;6.9;;
74644;SDS011;63163;55.630;37.594;2023-03-11T03:30:45;13.0;;;6.9;;
74644;SDS011;63163;55.630;37.594;2023-03-11T03:31:46;15.5;;;7.0;;
74644;SDS011;63163;55.630;37.594;2023-03-11T03:32:46;17.4;;;7.6;;
74644;SDS011;63163;55.630;37.594;2023-03-11T03:33:47;13.8;;;8.3;;
74644;SDS011;63163;55.630;37.594;2023-03-11T03:34:47;14.2;;;7.6;;
74644;SDS011;63163;55.630;37.594;2023-03-11T03:35:48;16.8;;;7.7;;
74644;SDS011;63163;55.630;37.594;2023-03-11T03:36:48;14.1;;;7.7;;
74644;SDS011;63163;55.630;37.594;2023-03-11T03:37:49;15.4;;;8.1;;
74644;SDS011;63163;55.630;37.594;2023-03-11T03:38:52;15.4;;;7.6;;
74644;SDS011;63163;55.630;37.594;2023-03-11T03:39:52;16.2;;;7.5;;
74644;SDS011;63163;55.630;37.594;2023-03-11T03:40:53;17.1;;;8.1;;
74644;SDS011;63163;55.630;37.594;2023-03-11T03:41:53;17.0;;;8.6;;
74644;SDS011;63163;55.630;37.594;2023-03-11T03:42:54;13.1;;;7.8;;
74644;SDS011;63163;55.630;37.594;2023-03-11T03:43:54;16.5;;;8.3;;
74644;SDS011;63163;55.630;37.594;2023-03-11T03:44:55;18.1;;;7.8;;
74644;SDS011;63163;55.630;37.594;2023-03-11T03:45:56;17.5;;;8.3;;
74644;SDS011;63163;55.630;37.594;2023-03-11T03:46:56;16.2;;;7.9;;
74644;SDS011;63163;55.630;37.594;2023-03-11T03:47:57;21.0;;;8.3;;
74644;SDS011;63163;55.630;37.594;2023-03-11T03:48:57;17.1;;;8.0;;
74644;SDS011;63163;55.630;37.594;2023-03-11T03:49:58;16.0;;;8.5;;
74644;SDS011;63163;55.630;37.594;2023-03-11T03:51:01;18.2;;;8.1;;
74644;SDS011;63163;55.630;37.594;2023-03-11T03:52:03;19.3;;;8.7;;
74644;SDS011;63163;55.630;37.594;2023-03-11T03:53:04;22.8;;;8.9;;
74644;SDS011;63163;55.630;37.594;2023-03-11T03:54:05;22.6;;;8.7;;
74644;SDS011;63163;55.630;37.594;2023-03-11T03:55:06;18.2;;;8.2;;
74644;SDS011;63163;55.630;37.594;2023-03-11T03:56:07;19.8;;;9.1;;
74644;SDS011;63163;55.630;37.594;2023-03-11T03:57:08;20.7;;;9.3;;
74644;SDS011;63163;55.630;37.594;2023-03-11T03:58:09;17.8;;;8.8;;
74644;SDS011;63163;55.630;37.594;2023-03-11T03:59:09;18.2;;;8.8;;
74644;SDS011;63163;55.630;37.594;2023-03-11T04:00:10;22.3;;;9.3;;
74644;SDS011;63163;55.630;37.594;2023-03-11T04:01:11;16.9;;;8.4;;
74644;SDS011;63163;55.630;37.594;2023-03-11T04:02:12;18.6;;;8.9;;
74644;SDS011;63163;55.630;37.594;2023-03-11T04:03:12;22.0;;;9.4;;
74644;SDS011;63163;55.630;37.594;2023-03-11T04:04:13;19.2;;;8.8;;
74644;SDS011;63163;55.630;37.594;2023-03-11T04:05:13;18.5;;;9.1;;
74644;SDS011;63163;55.630;37.594;2023-03-11T04:06:15;21.1;;;8.6;;
74644;SDS011;63163;55.630;37.594;2023-03-11T04:07:16;24.0;;;9.4;;
74644;SDS011;63163;55.630;37.594;2023-03-11T04:08:17;25.2;;;9.7;;
74644;SDS011;63163;55.630;37.594;2023-03-11T04:09:18;20.4;;;9.6;;
74644;SDS011;63163;55.630;37.594;2023-03-11T04:10:18;25.5;;;9.9;;
74644;SDS011;63163;55.630;37.594;2023-03-11T04:11:19;19.9;;;10.1;;
74644;SDS011;63163;55.630;37.594;2023-03-11T04:12:20;21.0;;;9.5;;
74644;SDS011;63163;55.630;37.594;2023-03-11T04:13:21;24.7;;;9.7;;
74644;SDS011;63163;55.630;37.594;2023-03-11T04:14:22;25.5;;;9.2;;
74644;SDS011;63163;55.630;37.594;2023-03-11T04:15:22;20.6;;;9.8;;
74644;SDS011;63163;55.630;37.594;2023-03-11T04:16:23;21.8;;;10.8;;
74644;SDS011;63163;55.630;37.594;2023-03-11T04:17:23;21.6;;;9.4;;
74644;SDS011;63163;55.630;37.594;2023-03-11T04:18:24;24.1;;;9.9;;
74644;SDS011;63163;55.630;37.594;2023-03-11T04:19:24;20.5;;;10.0;;
74644;SDS011;63163;55.630;37.594;2023-03-11T04:20:25;19.7;;;9.6;;
74644;SDS011;63163;55.630;37.594;2023-03-11T04:21:25;22.8;;;9.9;;
74644;SDS011;63163;55.630;37.594;2023-03-11T04:22:26;20.8;;;9.8;;
74644;SDS011;63163;55.630;37.594;2023-03-11T04:23:26;20.8;;;10.3;;
74644;SDS011;63163;55.630;37.594;2023-03-11T04:24:27;23.3;;;10.2;;
74644;SDS011;63163;55.630;37.594;2023-03-11T04:25:27;20.1;;;10.4;;
74644;SDS011;63163;55.630;37.594;2023-03-11T04:26:28;23.3;;;10.2;;
74644;SDS011;63163;55.630;37.594;2023-03-11T04:27:29;21.9;;;10.4;;
74644;SDS011;63163;55.630;37.594;2023-03-11T04:28:29;25.0;;;10.5;;
74644;SDS011;63163;55.630;37.594;2023-03-11T04:29:30;21.3;;;10.1;;
74644;SDS011;63163;55.630;37.594;2023-03-11T04:30:30;21.3;;;10.1;;
74644;SDS011;63163;55.630;37.594;2023-03-11T04:31:31;17.4;;;9.4;;
74644;SDS011;63163;55.630;37.594;2023-03-11T04:32:31;24.1;;;10.3;;
74644;SDS011;63163;55.630;37.594;2023-03-11T04:33:32;23.0;;;9.9;;
74644;SDS011;63163;55.630;37.594;2023-03-11T04:34:32;21.8;;;9.9;;
74644;SDS011;63163;55.630;37.594;2023-03-11T04:35:33;20.9;;;9.8;;
74644;SDS011;63163;55.630;37.594;2023-03-11T04:36:33;19.0;;;10.3;;
74644;SDS011;63163;55.630;37.594;2023-03-11T04:37:34;18.5;;;10.3;;
74644;SDS011;63163;55.630;37.594;2023-03-11T04:38:34;16.8;;;9.3;;
74644;SDS011;63163;55.630;37.594;2023-03-11T04:39:35;21.4;;;10.5;;
74644;SDS011;63163;55.630;37.594;2023-03-11T04:40:36;20.1;;;9.8;;
74644;SDS011;63163;55.630;37.594;2023-03-11T04:41:36;20.2;;;9.5;;
74644;SDS011;63163;55.630;37.594;2023-03-11T04:42:37;18.5;;;9.7;;
74644;SDS011;63163;55.630;37.594;2023-03-11T04:43:38;19.7;;;9.8;;
74644;SDS011;63163;55.630;37.594;2023-03-11T04:44:38;19.4;;;10.1;;
74644;SDS011;63163;55.630;37.594;2023-03-11T04:45:39;18.8;;;9.4;;
74644;SDS011;63163;55.630;37.594;2023-03-11T04:46:40;20.0;;;9.5;;
74644;SDS011;63163;55.630;37.594;2023-03-11T04:47:40;23.8;;;10.3;;
74644;SDS011;63163;55.630;37.594;2023-03-11T04:48:41;20.7;;;9.7;;
74644;SDS011;63163;55.630;37.594;2023-03-11T04:49:42;18.0;;;9.7;;
74644;SDS011;63163;55.630;37.594;2023-03-11T04:50:42;18.5;;;9.5;;
74644;SDS011;63163;55.630;37.594;2023-03-11T04:51:43;19.1;;;9.8;;
74644;SDS011;63163;55.630;37.594;2023-03-11T04:52:44;21.0;;;9.2;;
74644;SDS011;63163;55.630;37.594;2023-03-11T04:53:44;19.8;;;9.8;;
74644;SDS011;63163;55.630;37.594;2023-03-11T04:54:45;18.3;;;9.4;;
74644;SDS011;63163;55.630;37.594;2023-03-11T04:55:45;16.2;;;9.3;;
74644;SDS011;63163;55.630;37.594;2023-03-11T04:56:47;21.3;;;9.1;;
74644;SDS011;63163;55.630;37.594;2023-03-11T04:57:47;17.8;;;9.9;;
74644;SDS011;63163;55.630;37.594;2023-03-11T04:58:48;17.5;;;9.7;;
74644;SDS011;63163;55.630;37.594;2023-03-11T04:59:48;19.1;;;9.7;;
74644;SDS011;63163;55.630;37.594;2023-03-11T05:00:48;18.4;;;9.3;;
74644;SDS011;63163;55.630;37.594;2023-03-11T05:01:49;20.5;;;9.7;;
74644;SDS011;63163;55.630;37.594;2023-03-11T05:02:50;19.7;;;9.7;;
74644;SDS011;63163;55.630;37.594;2023-03-11T05:03:50;21.3;;;9.2;;
74644;SDS011;63163;55.630;37.594;2023-03-11T05:04:51;19.2;;;10.0;;
74644;SDS011;63163;55.630;37.594;2023-03-11T05:05:51;20.7;;;10.2;;
74644;SDS011;63163;55.630;37.594;2023-03-11T05:06:55;17.8;;;9.1;;
74644;SDS011;63163;55.630;37.594;2023-03-11T05:07:56;18.5;;;8.8;;
74644;SDS011;63163;55.630;37.594;2023-03-11T05:08:57;17.1;;;9.1;;
74644;SDS011;63163;55.630;37.594;2023-03-11T05:09:58;15.2;;;8.9;;
74644;SDS011;63163;55.630;37.594;2023-03-11T05:10:58;18.3;;;8.9;;
74644;SDS011;63163;55.630;37.594;2023-03-11T05:11:59;15.8;;;9.1;;
74644;SDS011;63163;55.630;37.594;2023-03-11T05:13:00;23.9;;;9.4;;
74644;SDS011;63163;55.630;37.594;2023-03-11T05:14:01;20.2;;;9.4;;
74644;SDS011;63163;55.630;37.594;2023-03-11T05:15:02;20.1;;;9.7;;
74644;SDS011;63163;55.630;37.594;2023-03-11T05:16:03;16.0;;;9.2;;
74644;SDS011;63163;55.630;37.594;2023-03-11T05:17:03;18.5;;;9.5;;
74644;SDS011;63163;55.630;37.594;2023-03-11T05:18:04;18.4;;;9.6;;
74644;SDS011;63163;55.630;37.594;2023-03-11T05:19:04;19.8;;;9.8;;
74644;SDS011;63163;55.630;37.594;2023-03-11T05:20:30;20.3;;;9.0;;
74644;SDS011;63163;55.630;37.594;2023-03-11T05:21:31;15.6;;;8.9;;
74644;SDS011;63163;55.630;37.594;2023-03-11T05:22:31;16.7;;;9.4;;
74644;SDS011;63163;55.630;37.594;2023-03-11T05:23:32;18.0;;;9.6;;
74644;SDS011;63163;55.630;37.594;2023-03-11T05:24:33;18.6;;;9.2;;
74644;SDS011;63163;55.630;37.594;2023-03-11T05:25:33;16.9;;;9.4;;
74644;SDS011;63163;55.630;37.594;2023-03-11T05:26:34;18.7;;;9.4;;
74644;SDS011;63163;55.630;37.594;2023-03-11T05:27:35;20.0;;;9.7;;
74644;SDS011;63163;55.630;37.594;2023-03-11T05:28:35;18.3;;;10.3;;
74644;SDS011;63163;55.630;37.594;2023-03-11T05:29:36;18.3;;;10.3;;
74644;SDS011;63163;55.630;37.594;2023-03-11T05:30:36;19.9;;;10.3;;
74644;SDS011;63163;55.630;37.594;2023-03-11T05:31:37;18.7;;;9.6;;
74644;SDS011;63163;55.630;37.594;2023-03-11T05:32:38;20.8;;;9.7;;
74644;SDS011;63163;55.630;37.594;2023-03-11T05:33:38;18.4;;;9.7;;
74644;SDS011;63163;55.630;37.594;2023-03-11T05:34:39;17.9;;;9.8;;
74644;SDS011;63163;55.630;37.594;2023-03-11T05:35:40;17.3;;;9.6;;
74644;SDS011;63163;55.630;37.594;2023-03-11T05:36:42;18.1;;;8.7;;
74644;SDS011;63163;55.630;37.594;2023-03-11T05:37:42;16.5;;;9.1;;
74644;SDS011;63163;55.630;37.594;2023-03-11T05:38:43;17.7;;;9.6;;
74644;SDS011;63163;55.630;37.594;2023-03-11T05:39:43;17.3;;;9.0;;
74644;SDS011;63163;55.630;37.594;2023-03-11T05:40:44;20.5;;;8.9;;
74644;SDS011;63163;55.630;37.594;2023-03-11T05:41:45;20.6;;;9.4;;
74644;SDS011;63163;55.630;37.594;2023-03-11T05:42:46;17.1;;;8.7;;
74644;SDS011;63163;55.630;37.594;2023-03-11T05:43:46;15.2;;;9.3;;
74644;SDS011;63163;55.630;37.594;2023-03-11T05:44:47;17.6;;;9.0;;
74644;SDS011;63163;55.630;37.594;2023-03-11T05:45:47;18.7;;;8.9;;
74644;SDS011;63163;55.630;37.594;2023-03-11T05:46:48;17.7;;;8.9;;
74644;SDS011;63163;55.630;37.594;2023-03-11T05:47:50;20.1;;;9.8;;
74644;SDS011;63163;55.630;37.594;2023-03-11T05:48:51;17.9;;;8.8;;
74644;SDS011;63163;55.630;37.594;2023-03-11T05:49:51;21.0;;;8.9;;
74644;SDS011;63163;55.630;37.594;2023-03-11T05:50:52;16.8;;;9.1;;
74644;SDS011;63163;55.630;37.594;2023-03-11T05:51:52;17.0;;;8.3;;
74644;SDS011;63163;55.630;37.594;2023-03-11T05:52:53;17.9;;;9.7;;
74644;SDS011;63163;55.630;37.594;2023-03-11T05:53:53;20.1;;;8.7;;
74644;SDS011;63163;55.630;37.594;2023-03-11T05:54:54;18.0;;;9.0;;
74644;SDS011;63163;55.630;37.594;2023-03-11T05:55:55;15.3;;;8.6;;
74644;SDS011;63163;55.630;37.594;2023-03-11T05:56:56;17.8;;;9.3;;
74644;SDS011;63163;55.630;37.594;2023-03-11T05:57:57;21.0;;;9.4;;
74644;SDS011;63163;55.630;37.594;2023-03-11T05:58:57;16.7;;;8.8;;
74644;SDS011;63163;55.630;37.594;2023-03-11T05:59:58;18.0;;;9.1;;
74644;SDS011;63163;55.630;37.594;2023-03-11T06:00:58;17.2;;;9.0;;
74644;SDS011;63163;55.630;37.594;2023-03-11T06:01:59;14.1;;;8.2;;
74644;SDS011;63163;55.630;37.594;2023-03-11T06:03:00;18.7;;;9.8;;
74644;SDS011;63163;55.630;37.594;2023-03-11T06:04:00;15.9;;;9.1;;
74644;SDS011;63163;55.630;37.594;2023-03-11T06:05:01;16.6;;;8.4;;
74644;SDS011;63163;55.630;37.594;2023-03-11T06:06:01;17.8;;;8.7;;
74644;SDS011;63163;55.630;37.594;2023-03-11T06:07:03;17.6;;;8.9;;
74644;SDS011;63163;55.630;37.594;2023-03-11T06:08:04;16.4;;;8.8;;
74644;SDS011;63163;55.630;37.594;2023-03-11T06:09:04;17.8;;;8.5;;
74644;SDS011;63163;55.630;37.594;2023-03-11T06:10:05;16.5;;;8.5;;